Aviation Digital Data Service (ADDS)

Output produced by METARs form (0202 UTC 30 July 2015)
found at http://aviationweather.gov/adds/metars/
 
KAUG 300013Z 3000/3024 VRB03KT P6SM SKC 
     FM301000 VRB03KT P6SM SKC 
     FM301300 15007KT P6SM SCT050